sensor_id;sensor_type;location;lat;lon;timestamp;temperature;humidity
8220;DHT22;4151;51.110;7.020;2023-05-16T00:00:05;11.20;99.90
8220;DHT22;4151;51.110;7.020;2023-05-16T00:02:34;11.20;99.90
8220;DHT22;4151;51.110;7.020;2023-05-16T00:05:00;11.30;99.90
8220;DHT22;4151;51.110;7.020;2023-05-16T00:07:25;11.20;99.90
8220;DHT22;4151;51.110;7.020;2023-05-16T00:09:51;11.20;99.90
8220;DHT22;4151;51.110;7.020;2023-05-16T00:12:16;11.30;99.90
8220;DHT22;4151;51.110;7.020;2023-05-16T00:14:44;11.20;99.90
8220;DHT22;4151;51.110;7.020;2023-05-16T00:17:09;11.20;99.90
8220;DHT22;4151;51.110;7.020;2023-05-16T00:19:37;11.20;99.90
8220;DHT22;4151;51.110;7.020;2023-05-16T00:22:04;11.20;99.90
8220;DHT22;4151;51.110;7.020;2023-05-16T00:24:29;11.20;99.90
8220;DHT22;4151;51.110;7.020;2023-05-16T00:26:55;11.20;99.90
8220;DHT22;4151;51.110;7.020;2023-05-16T00:29:20;11.20;99.90
8220;DHT22;4151;51.110;7.020;2023-05-16T00:31:48;11.10;99.90
8220;DHT22;4151;51.110;7.020;2023-05-16T00:34:14;11.10;99.90
8220;DHT22;4151;51.110;7.020;2023-05-16T00:36:40;11.10;99.90
8220;DHT22;4151;51.110;7.020;2023-05-16T00:39:06;11.00;99.90
8220;DHT22;4151;51.110;7.020;2023-05-16T00:41:33;11.10;99.90
8220;DHT22;4151;51.110;7.020;2023-05-16T00:43:58;11.20;99.90
8220;DHT22;4151;51.110;7.020;2023-05-16T00:46:24;11.20;99.90
8220;DHT22;4151;51.110;7.020;2023-05-16T00:48:50;11.10;99.90
8220;DHT22;4151;51.110;7.020;2023-05-16T00:51:16;11.00;99.90
8220;DHT22;4151;51.110;7.020;2023-05-16T00:53:42;10.90;99.90
8220;DHT22;4151;51.110;7.020;2023-05-16T00:56:08;11.00;99.90
8220;DHT22;4151;51.110;7.020;2023-05-16T00:58:35;11.00;99.90
8220;DHT22;4151;51.110;7.020;2023-05-16T01:01:01;11.10;99.90
8220;DHT22;4151;51.110;7.020;2023-05-16T01:03:28;11.00;99.90
8220;DHT22;4151;51.110;7.020;2023-05-16T01:05:54;11.00;99.90
8220;DHT22;4151;51.110;7.020;2023-05-16T01:08:20;11.00;99.90
8220;DHT22;4151;51.110;7.020;2023-05-16T01:13:35;10.50;99.90
8220;DHT22;4151;51.110;7.020;2023-05-16T01:16:09;10.40;99.90
8220;DHT22;4151;51.110;7.020;2023-05-16T01:18:56;10.30;99.90
8220;DHT22;4151;51.110;7.020;2023-05-16T01:22:00;10.40;99.90
8220;DHT22;4151;51.110;7.020;2023-05-16T01:24:41;10.40;99.90
8220;DHT22;4151;51.110;7.020;2023-05-16T01:27:09;10.30;99.90
8220;DHT22;4151;51.110;7.020;2023-05-16T01:29:36;10.30;99.90
8220;DHT22;4151;51.110;7.020;2023-05-16T01:32:01;10.30;99.90
8220;DHT22;4151;51.110;7.020;2023-05-16T01:34:27;10.30;99.90
8220;DHT22;4151;51.110;7.020;2023-05-16T01:37:22;10.20;99.90
8220;DHT22;4151;51.110;7.020;2023-05-16T01:39:56;10.10;99.90
8220;DHT22;4151;51.110;7.020;2023-05-16T01:42:26;10.10;99.90
8220;DHT22;4151;51.110;7.020;2023-05-16T01:47:40;10.10;99.90
8220;DHT22;4151;51.110;7.020;2023-05-16T01:50:15;10.10;99.90
8220;DHT22;4151;51.110;7.020;2023-05-16T01:52:54;10.00;99.90
8220;DHT22;4151;51.110;7.020;2023-05-16T01:55:31;10.00;99.90
8220;DHT22;4151;51.110;7.020;2023-05-16T01:58:02;10.00;99.90
8220;DHT22;4151;51.110;7.020;2023-05-16T02:00:28;9.90;99.90
8220;DHT22;4151;51.110;7.020;2023-05-16T02:02:54;9.90;99.90
8220;DHT22;4151;51.110;7.020;2023-05-16T02:05:20;9.90;99.90
8220;DHT22;4151;51.110;7.020;2023-05-16T02:07:45;9.90;99.90
8220;DHT22;4151;51.110;7.020;2023-05-16T02:10:12;9.80;99.90
8220;DHT22;4151;51.110;7.020;2023-05-16T02:12:38;9.70;99.90
8220;DHT22;4151;51.110;7.020;2023-05-16T02:15:04;9.70;99.90
8220;DHT22;4151;51.110;7.020;2023-05-16T02:17:30;9.60;99.90
8220;DHT22;4151;51.110;7.020;2023-05-16T02:19:56;9.60;99.90
8220;DHT22;4151;51.110;7.020;2023-05-16T02:22:21;9.60;99.90
8220;DHT22;4151;51.110;7.020;2023-05-16T02:24:47;9.50;99.90
8220;DHT22;4151;51.110;7.020;2023-05-16T02:27:12;9.50;99.90
8220;DHT22;4151;51.110;7.020;2023-05-16T02:29:38;9.40;99.90
8220;DHT22;4151;51.110;7.020;2023-05-16T02:32:04;9.40;99.90
8220;DHT22;4151;51.110;7.020;2023-05-16T02:34:29;9.50;99.90
8220;DHT22;4151;51.110;7.020;2023-05-16T02:36:55;9.50;99.90
8220;DHT22;4151;51.110;7.020;2023-05-16T02:39:20;9.40;99.90
8220;DHT22;4151;51.110;7.020;2023-05-16T02:41:46;9.30;99.90
8220;DHT22;4151;51.110;7.020;2023-05-16T02:44:11;9.30;99.90
8220;DHT22;4151;51.110;7.020;2023-05-16T02:46:37;9.20;99.90
8220;DHT22;4151;51.110;7.020;2023-05-16T02:49:03;9.10;99.90
8220;DHT22;4151;51.110;7.020;2023-05-16T02:51:28;9.00;99.90
8220;DHT22;4151;51.110;7.020;2023-05-16T02:53:54;9.10;99.90
8220;DHT22;4151;51.110;7.020;2023-05-16T02:56:24;9.10;99.90
8220;DHT22;4151;51.110;7.020;2023-05-16T02:58:52;9.10;99.90
8220;DHT22;4151;51.110;7.020;2023-05-16T03:01:17;9.00;99.90
8220;DHT22;4151;51.110;7.020;2023-05-16T03:03:43;9.10;99.90
8220;DHT22;4151;51.110;7.020;2023-05-16T03:06:08;9.00;99.90
8220;DHT22;4151;51.110;7.020;2023-05-16T03:08:34;9.00;99.90
8220;DHT22;4151;51.110;7.020;2023-05-16T03:11:00;9.00;99.90
8220;DHT22;4151;51.110;7.020;2023-05-16T03:13:26;9.00;99.90
8220;DHT22;4151;51.110;7.020;2023-05-16T03:15:52;9.10;99.90
8220;DHT22;4151;51.110;7.020;2023-05-16T03:18:18;9.10;99.90
8220;DHT22;4151;51.110;7.020;2023-05-16T03:20:43;9.20;99.90
8220;DHT22;4151;51.110;7.020;2023-05-16T03:23:09;9.10;99.90
8220;DHT22;4151;51.110;7.020;2023-05-16T03:25:35;9.20;99.90
8220;DHT22;4151;51.110;7.020;2023-05-16T03:28:04;9.10;99.90
8220;DHT22;4151;51.110;7.020;2023-05-16T03:30:30;9.00;99.90
8220;DHT22;4151;51.110;7.020;2023-05-16T03:32:56;9.00;99.90
8220;DHT22;4151;51.110;7.020;2023-05-16T03:35:22;9.00;99.90
8220;DHT22;4151;51.110;7.020;2023-05-16T03:37:49;9.00;99.90
8220;DHT22;4151;51.110;7.020;2023-05-16T03:40:14;9.00;99.90
8220;DHT22;4151;51.110;7.020;2023-05-16T03:42:40;9.00;99.90
8220;DHT22;4151;51.110;7.020;2023-05-16T03:45:06;8.90;99.90
8220;DHT22;4151;51.110;7.020;2023-05-16T03:47:32;8.90;99.90
8220;DHT22;4151;51.110;7.020;2023-05-16T03:49:58;8.90;99.90
8220;DHT22;4151;51.110;7.020;2023-05-16T03:52:23;8.90;99.90
8220;DHT22;4151;51.110;7.020;2023-05-16T03:54:49;8.90;99.90
8220;DHT22;4151;51.110;7.020;2023-05-16T03:57:14;8.90;99.90
8220;DHT22;4151;51.110;7.020;2023-05-16T03:59:40;8.90;99.90
8220;DHT22;4151;51.110;7.020;2023-05-16T04:02:07;8.70;99.90
8220;DHT22;4151;51.110;7.020;2023-05-16T04:04:32;8.70;99.90
8220;DHT22;4151;51.110;7.020;2023-05-16T04:06:59;8.60;99.90
8220;DHT22;4151;51.110;7.020;2023-05-16T04:09:24;8.60;99.90
8220;DHT22;4151;51.110;7.020;2023-05-16T04:11:50;8.60;99.90
8220;DHT22;4151;51.110;7.020;2023-05-16T04:14:16;8.60;99.90
8220;DHT22;4151;51.110;7.020;2023-05-16T04:16:41;8.60;99.90
8220;DHT22;4151;51.110;7.020;2023-05-16T04:19:07;8.60;99.90
8220;DHT22;4151;51.110;7.020;2023-05-16T04:21:32;8.60;99.90
8220;DHT22;4151;51.110;7.020;2023-05-16T04:23:58;8.60;99.90
8220;DHT22;4151;51.110;7.020;2023-05-16T04:26:23;8.50;99.90
8220;DHT22;4151;51.110;7.020;2023-05-16T04:28:50;8.50;99.90
8220;DHT22;4151;51.110;7.020;2023-05-16T04:31:15;8.50;99.90
8220;DHT22;4151;51.110;7.020;2023-05-16T04:33:41;8.60;99.90
8220;DHT22;4151;51.110;7.020;2023-05-16T04:36:07;8.60;99.90
8220;DHT22;4151;51.110;7.020;2023-05-16T04:38:32;8.50;99.90
8220;DHT22;4151;51.110;7.020;2023-05-16T04:40:58;8.40;99.90
8220;DHT22;4151;51.110;7.020;2023-05-16T04:43:24;8.50;99.90
8220;DHT22;4151;51.110;7.020;2023-05-16T04:45:50;8.40;99.90
8220;DHT22;4151;51.110;7.020;2023-05-16T04:48:18;8.40;99.90
8220;DHT22;4151;51.110;7.020;2023-05-16T04:50:43;8.30;99.90
8220;DHT22;4151;51.110;7.020;2023-05-16T04:53:09;8.40;99.90
8220;DHT22;4151;51.110;7.020;2023-05-16T04:55:34;8.30;99.90
8220;DHT22;4151;51.110;7.020;2023-05-16T04:58:00;8.40;99.90
8220;DHT22;4151;51.110;7.020;2023-05-16T05:00:25;8.50;99.90
8220;DHT22;4151;51.110;7.020;2023-05-16T05:02:51;8.40;99.90
8220;DHT22;4151;51.110;7.020;2023-05-16T05:05:17;8.30;99.90
8220;DHT22;4151;51.110;7.020;2023-05-16T05:07:42;8.30;99.90
8220;DHT22;4151;51.110;7.020;2023-05-16T05:10:09;8.20;99.90
8220;DHT22;4151;51.110;7.020;2023-05-16T05:12:35;8.20;99.90
8220;DHT22;4151;51.110;7.020;2023-05-16T05:15:00;8.20;99.90
8220;DHT22;4151;51.110;7.020;2023-05-16T05:17:27;8.10;99.90
8220;DHT22;4151;51.110;7.020;2023-05-16T05:19:52;8.10;99.90
8220;DHT22;4151;51.110;7.020;2023-05-16T05:22:18;8.10;99.90
8220;DHT22;4151;51.110;7.020;2023-05-16T05:24:43;8.20;99.90
8220;DHT22;4151;51.110;7.020;2023-05-16T05:27:09;8.40;99.90
8220;DHT22;4151;51.110;7.020;2023-05-16T05:29:34;8.50;99.90
8220;DHT22;4151;51.110;7.020;2023-05-16T05:32:00;8.60;99.90
8220;DHT22;4151;51.110;7.020;2023-05-16T05:34:26;8.70;99.90
8220;DHT22;4151;51.110;7.020;2023-05-16T05:36:51;8.70;99.90
8220;DHT22;4151;51.110;7.020;2023-05-16T05:39:17;8.70;99.90
8220;DHT22;4151;51.110;7.020;2023-05-16T05:41:42;8.70;99.90
8220;DHT22;4151;51.110;7.020;2023-05-16T05:44:08;8.70;99.90
8220;DHT22;4151;51.110;7.020;2023-05-16T05:46:34;8.70;99.90
8220;DHT22;4151;51.110;7.020;2023-05-16T05:49:00;8.50;99.90
8220;DHT22;4151;51.110;7.020;2023-05-16T05:51:25;8.50;99.90
8220;DHT22;4151;51.110;7.020;2023-05-16T05:53:51;8.60;99.90
8220;DHT22;4151;51.110;7.020;2023-05-16T05:56:17;8.60;99.90
8220;DHT22;4151;51.110;7.020;2023-05-16T05:58:44;8.60;99.90
8220;DHT22;4151;51.110;7.020;2023-05-16T06:01:10;8.60;99.90
8220;DHT22;4151;51.110;7.020;2023-05-16T06:03:36;8.60;99.90
8220;DHT22;4151;51.110;7.020;2023-05-16T06:06:02;8.70;99.90
8220;DHT22;4151;51.110;7.020;2023-05-16T06:08:28;8.70;99.90
8220;DHT22;4151;51.110;7.020;2023-05-16T06:10:53;8.80;99.90
8220;DHT22;4151;51.110;7.020;2023-05-16T06:13:19;8.90;99.90
8220;DHT22;4151;51.110;7.020;2023-05-16T06:15:50;9.00;99.90
8220;DHT22;4151;51.110;7.020;2023-05-16T06:18:15;9.10;99.90
8220;DHT22;4151;51.110;7.020;2023-05-16T06:20:41;9.10;99.90
8220;DHT22;4151;51.110;7.020;2023-05-16T06:23:06;9.20;99.90
8220;DHT22;4151;51.110;7.020;2023-05-16T06:25:32;9.30;99.90
8220;DHT22;4151;51.110;7.020;2023-05-16T06:27:57;9.40;99.90
8220;DHT22;4151;51.110;7.020;2023-05-16T06:30:23;9.50;99.90
8220;DHT22;4151;51.110;7.020;2023-05-16T06:32:49;9.50;99.90
8220;DHT22;4151;51.110;7.020;2023-05-16T06:35:14;9.60;99.90
8220;DHT22;4151;51.110;7.020;2023-05-16T06:37:40;9.70;99.90
8220;DHT22;4151;51.110;7.020;2023-05-16T06:40:06;9.80;99.90
8220;DHT22;4151;51.110;7.020;2023-05-16T06:42:32;9.80;99.90
8220;DHT22;4151;51.110;7.020;2023-05-16T06:44:57;9.90;99.90
8220;DHT22;4151;51.110;7.020;2023-05-16T06:47:23;9.90;99.90
8220;DHT22;4151;51.110;7.020;2023-05-16T06:49:49;10.00;99.90
8220;DHT22;4151;51.110;7.020;2023-05-16T06:52:15;9.90;99.90
8220;DHT22;4151;51.110;7.020;2023-05-16T06:54:41;10.00;99.90
8220;DHT22;4151;51.110;7.020;2023-05-16T06:57:06;10.00;99.90
8220;DHT22;4151;51.110;7.020;2023-05-16T06:59:33;10.10;99.90
8220;DHT22;4151;51.110;7.020;2023-05-16T07:01:59;10.00;99.90
8220;DHT22;4151;51.110;7.020;2023-05-16T07:04:25;10.00;99.90
8220;DHT22;4151;51.110;7.020;2023-05-16T07:06:51;10.00;99.90
8220;DHT22;4151;51.110;7.020;2023-05-16T07:09:17;10.00;99.90
8220;DHT22;4151;51.110;7.020;2023-05-16T07:11:43;10.00;99.90
8220;DHT22;4151;51.110;7.020;2023-05-16T07:14:09;10.10;99.90
8220;DHT22;4151;51.110;7.020;2023-05-16T07:16:34;10.20;99.90
8220;DHT22;4151;51.110;7.020;2023-05-16T07:19:00;10.20;99.90
8220;DHT22;4151;51.110;7.020;2023-05-16T07:21:26;10.30;99.90
8220;DHT22;4151;51.110;7.020;2023-05-16T07:23:52;10.50;99.90
8220;DHT22;4151;51.110;7.020;2023-05-16T07:26:17;10.50;99.90
8220;DHT22;4151;51.110;7.020;2023-05-16T07:28:46;10.70;99.90
8220;DHT22;4151;51.110;7.020;2023-05-16T07:31:11;10.90;99.90
8220;DHT22;4151;51.110;7.020;2023-05-16T07:33:37;11.00;99.90
8220;DHT22;4151;51.110;7.020;2023-05-16T07:36:03;11.00;99.90
8220;DHT22;4151;51.110;7.020;2023-05-16T07:38:28;11.20;99.90
8220;DHT22;4151;51.110;7.020;2023-05-16T07:40:55;11.30;99.90
8220;DHT22;4151;51.110;7.020;2023-05-16T07:43:20;11.50;99.90
8220;DHT22;4151;51.110;7.020;2023-05-16T07:45:46;11.70;99.90
8220;DHT22;4151;51.110;7.020;2023-05-16T07:48:11;11.80;99.90
8220;DHT22;4151;51.110;7.020;2023-05-16T07:50:37;12.00;99.90
8220;DHT22;4151;51.110;7.020;2023-05-16T07:53:03;12.10;99.90
8220;DHT22;4151;51.110;7.020;2023-05-16T07:55:28;12.20;99.90
8220;DHT22;4151;51.110;7.020;2023-05-16T07:57:54;12.10;99.90
8220;DHT22;4151;51.110;7.020;2023-05-16T08:00:20;11.90;99.90
8220;DHT22;4151;51.110;7.020;2023-05-16T08:02:45;11.80;99.90
8220;DHT22;4151;51.110;7.020;2023-05-16T08:05:11;11.60;99.90
8220;DHT22;4151;51.110;7.020;2023-05-16T08:07:37;11.50;99.90
8220;DHT22;4151;51.110;7.020;2023-05-16T08:10:03;11.60;99.90
8220;DHT22;4151;51.110;7.020;2023-05-16T08:12:29;11.60;99.90
8220;DHT22;4151;51.110;7.020;2023-05-16T08:14:55;11.70;99.90
8220;DHT22;4151;51.110;7.020;2023-05-16T08:17:21;11.70;99.90
8220;DHT22;4151;51.110;7.020;2023-05-16T08:19:47;11.80;99.90
8220;DHT22;4151;51.110;7.020;2023-05-16T08:22:12;12.00;99.90
8220;DHT22;4151;51.110;7.020;2023-05-16T08:24:38;12.10;99.90
8220;DHT22;4151;51.110;7.020;2023-05-16T08:27:04;12.20;99.90
8220;DHT22;4151;51.110;7.020;2023-05-16T08:29:30;12.30;99.90
8220;DHT22;4151;51.110;7.020;2023-05-16T08:31:56;12.60;99.90
8220;DHT22;4151;51.110;7.020;2023-05-16T08:34:21;12.60;99.90
8220;DHT22;4151;51.110;7.020;2023-05-16T08:36:47;12.40;99.90
8220;DHT22;4151;51.110;7.020;2023-05-16T08:39:13;12.30;99.90
8220;DHT22;4151;51.110;7.020;2023-05-16T08:41:39;12.50;99.90
8220;DHT22;4151;51.110;7.020;2023-05-16T08:44:05;12.90;99.90
8220;DHT22;4151;51.110;7.020;2023-05-16T08:46:32;13.40;99.90
8220;DHT22;4151;51.110;7.020;2023-05-16T08:49:00;13.80;99.90
8220;DHT22;4151;51.110;7.020;2023-05-16T08:51:27;14.20;99.90
8220;DHT22;4151;51.110;7.020;2023-05-16T08:53:59;14.30;99.90
8220;DHT22;4151;51.110;7.020;2023-05-16T08:56:26;14.30;99.90
8220;DHT22;4151;51.110;7.020;2023-05-16T08:58:52;14.30;99.90
8220;DHT22;4151;51.110;7.020;2023-05-16T09:01:20;13.90;99.90
8220;DHT22;4151;51.110;7.020;2023-05-16T09:03:47;13.40;99.90
8220;DHT22;4151;51.110;7.020;2023-05-16T09:06:13;13.10;99.90
8220;DHT22;4151;51.110;7.020;2023-05-16T09:08:39;13.00;99.90
8220;DHT22;4151;51.110;7.020;2023-05-16T09:11:05;12.90;99.90
8220;DHT22;4151;51.110;7.020;2023-05-16T09:13:30;12.80;99.90
8220;DHT22;4151;51.110;7.020;2023-05-16T09:16:22;12.90;99.90
8220;DHT22;4151;51.110;7.020;2023-05-16T09:18:59;13.10;99.90
8220;DHT22;4151;51.110;7.020;2023-05-16T09:21:27;13.40;99.90
8220;DHT22;4151;51.110;7.020;2023-05-16T09:23:53;13.70;99.90
8220;DHT22;4151;51.110;7.020;2023-05-16T09:26:19;14.00;99.90
8220;DHT22;4151;51.110;7.020;2023-05-16T09:28:46;14.50;99.90
8220;DHT22;4151;51.110;7.020;2023-05-16T09:31:19;15.10;99.90
8220;DHT22;4151;51.110;7.020;2023-05-16T09:33:45;15.50;99.90
8220;DHT22;4151;51.110;7.020;2023-05-16T09:36:10;15.90;99.90
8220;DHT22;4151;51.110;7.020;2023-05-16T09:38:36;16.30;99.90
8220;DHT22;4151;51.110;7.020;2023-05-16T09:41:02;17.10;99.90
8220;DHT22;4151;51.110;7.020;2023-05-16T09:43:28;17.40;99.90
8220;DHT22;4151;51.110;7.020;2023-05-16T09:45:53;17.50;99.90
8220;DHT22;4151;51.110;7.020;2023-05-16T09:48:20;17.70;99.90
8220;DHT22;4151;51.110;7.020;2023-05-16T09:50:51;18.10;99.90
8220;DHT22;4151;51.110;7.020;2023-05-16T09:53:27;17.90;99.90
8220;DHT22;4151;51.110;7.020;2023-05-16T09:56:01;17.80;99.90
8220;DHT22;4151;51.110;7.020;2023-05-16T09:58:31;17.80;99.90
8220;DHT22;4151;51.110;7.020;2023-05-16T10:00:58;17.80;99.90
8220;DHT22;4151;51.110;7.020;2023-05-16T10:03:27;17.30;99.90
8220;DHT22;4151;51.110;7.020;2023-05-16T10:05:53;16.70;99.90
8220;DHT22;4151;51.110;7.020;2023-05-16T10:08:21;16.70;99.90
8220;DHT22;4151;51.110;7.020;2023-05-16T10:10:50;17.20;99.90
8220;DHT22;4151;51.110;7.020;2023-05-16T10:13:22;17.80;99.90
8220;DHT22;4151;51.110;7.020;2023-05-16T10:15:52;18.40;99.90
8220;DHT22;4151;51.110;7.020;2023-05-16T10:18:20;17.90;99.90
8220;DHT22;4151;51.110;7.020;2023-05-16T10:20:48;17.10;99.90
8220;DHT22;4151;51.110;7.020;2023-05-16T10:23:17;16.80;99.90
8220;DHT22;4151;51.110;7.020;2023-05-16T10:25:45;16.00;99.90
8220;DHT22;4151;51.110;7.020;2023-05-16T10:28:12;15.70;99.90
8220;DHT22;4151;51.110;7.020;2023-05-16T10:30:45;16.00;99.90
8220;DHT22;4151;51.110;7.020;2023-05-16T10:33:12;16.90;99.90
8220;DHT22;4151;51.110;7.020;2023-05-16T10:35:38;18.10;99.90
8220;DHT22;4151;51.110;7.020;2023-05-16T10:38:05;18.70;99.90
8220;DHT22;4151;51.110;7.020;2023-05-16T10:40:32;19.20;99.90
8220;DHT22;4151;51.110;7.020;2023-05-16T10:43:00;18.30;99.90
8220;DHT22;4151;51.110;7.020;2023-05-16T10:45:26;18.00;99.90
8220;DHT22;4151;51.110;7.020;2023-05-16T10:48:02;18.40;99.90
8220;DHT22;4151;51.110;7.020;2023-05-16T10:50:35;18.70;99.90
8220;DHT22;4151;51.110;7.020;2023-05-16T11:17:38;19.20;99.90
8220;DHT22;4151;51.110;7.020;2023-05-16T11:20:04;18.50;99.90
8220;DHT22;4151;51.110;7.020;2023-05-16T11:22:38;17.70;99.90
8220;DHT22;4151;51.110;7.020;2023-05-16T11:25:09;17.00;99.90
8220;DHT22;4151;51.110;7.020;2023-05-16T11:27:45;16.30;99.90
8220;DHT22;4151;51.110;7.020;2023-05-16T11:30:13;15.80;99.90
8220;DHT22;4151;51.110;7.020;2023-05-16T11:32:41;15.40;99.90
8220;DHT22;4151;51.110;7.020;2023-05-16T11:35:09;15.20;99.90
8220;DHT22;4151;51.110;7.020;2023-05-16T11:37:36;15.20;99.90
8220;DHT22;4151;51.110;7.020;2023-05-16T11:40:04;15.40;99.90
8220;DHT22;4151;51.110;7.020;2023-05-16T11:42:41;15.60;99.90
8220;DHT22;4151;51.110;7.020;2023-05-16T11:45:13;15.90;99.90
8220;DHT22;4151;51.110;7.020;2023-05-16T11:47:40;16.10;99.90
8220;DHT22;4151;51.110;7.020;2023-05-16T11:50:10;17.10;99.90
8220;DHT22;4151;51.110;7.020;2023-05-16T11:52:37;18.70;99.90
8220;DHT22;4151;51.110;7.020;2023-05-16T11:55:07;19.70;99.90
8220;DHT22;4151;51.110;7.020;2023-05-16T11:57:35;20.60;99.90
8220;DHT22;4151;51.110;7.020;2023-05-16T12:00:07;21.50;99.90
8220;DHT22;4151;51.110;7.020;2023-05-16T12:02:38;22.20;99.90
8220;DHT22;4151;51.110;7.020;2023-05-16T12:05:10;22.90;99.90
8220;DHT22;4151;51.110;7.020;2023-05-16T12:07:38;22.30;99.90
8220;DHT22;4151;51.110;7.020;2023-05-16T12:10:08;22.00;99.90
8220;DHT22;4151;51.110;7.020;2023-05-16T12:12:35;21.50;99.90
8220;DHT22;4151;51.110;7.020;2023-05-16T12:15:06;21.10;99.90
8220;DHT22;4151;51.110;7.020;2023-05-16T12:17:36;21.20;99.90
8220;DHT22;4151;51.110;7.020;2023-05-16T12:20:03;20.50;99.90
8220;DHT22;4151;51.110;7.020;2023-05-16T12:22:30;20.30;99.90
8220;DHT22;4151;51.110;7.020;2023-05-16T12:24:58;20.80;99.90
8220;DHT22;4151;51.110;7.020;2023-05-16T12:27:24;20.10;99.90
8220;DHT22;4151;51.110;7.020;2023-05-16T12:29:50;19.20;99.90
8220;DHT22;4151;51.110;7.020;2023-05-16T12:32:20;18.00;99.90
8220;DHT22;4151;51.110;7.020;2023-05-16T12:34:49;17.20;99.90
8220;DHT22;4151;51.110;7.020;2023-05-16T12:37:16;16.60;99.90
8220;DHT22;4151;51.110;7.020;2023-05-16T12:39:42;16.30;99.90
8220;DHT22;4151;51.110;7.020;2023-05-16T12:42:08;16.20;99.90
8220;DHT22;4151;51.110;7.020;2023-05-16T12:44:35;16.00;99.90
8220;DHT22;4151;51.110;7.020;2023-05-16T12:47:01;15.80;99.90
8220;DHT22;4151;51.110;7.020;2023-05-16T12:49:27;15.80;99.90
8220;DHT22;4151;51.110;7.020;2023-05-16T12:51:54;16.30;99.90
8220;DHT22;4151;51.110;7.020;2023-05-16T12:54:21;16.40;99.90
8220;DHT22;4151;51.110;7.020;2023-05-16T12:56:48;16.50;99.90
8220;DHT22;4151;51.110;7.020;2023-05-16T12:59:13;17.00;99.90
8220;DHT22;4151;51.110;7.020;2023-05-16T13:01:40;18.30;99.90
8220;DHT22;4151;51.110;7.020;2023-05-16T13:04:06;20.20;99.90
8220;DHT22;4151;51.110;7.020;2023-05-16T13:06:32;21.10;99.90
8220;DHT22;4151;51.110;7.020;2023-05-16T13:08:58;21.40;99.90
8220;DHT22;4151;51.110;7.020;2023-05-16T13:11:24;21.40;99.90
8220;DHT22;4151;51.110;7.020;2023-05-16T13:13:51;22.10;99.90
8220;DHT22;4151;51.110;7.020;2023-05-16T13:16:17;22.70;99.90
8220;DHT22;4151;51.110;7.020;2023-05-16T13:18:42;23.00;98.30
8220;DHT22;4151;51.110;7.020;2023-05-16T13:21:08;23.40;94.80
8220;DHT22;4151;51.110;7.020;2023-05-16T13:23:34;23.10;95.90
8220;DHT22;4151;51.110;7.020;2023-05-16T13:25:59;24.10;95.10
8220;DHT22;4151;51.110;7.020;2023-05-16T13:28:25;25.10;93.30
8220;DHT22;4151;51.110;7.020;2023-05-16T13:30:50;25.20;89.40
8220;DHT22;4151;51.110;7.020;2023-05-16T13:33:16;25.30;85.90
8220;DHT22;4151;51.110;7.020;2023-05-16T13:35:43;25.10;84.10
8220;DHT22;4151;51.110;7.020;2023-05-16T13:38:08;25.50;82.90
8220;DHT22;4151;51.110;7.020;2023-05-16T13:40:34;25.90;80.90
8220;DHT22;4151;51.110;7.020;2023-05-16T13:43:00;25.40;78.80
8220;DHT22;4151;51.110;7.020;2023-05-16T13:45:26;24.20;78.30
8220;DHT22;4151;51.110;7.020;2023-05-16T13:47:52;23.90;77.30
8220;DHT22;4151;51.110;7.020;2023-05-16T13:50:17;23.00;77.70
8220;DHT22;4151;51.110;7.020;2023-05-16T13:52:43;23.80;78.10
8220;DHT22;4151;51.110;7.020;2023-05-16T13:55:08;24.30;77.30
8220;DHT22;4151;51.110;7.020;2023-05-16T13:57:34;24.40;74.80
8220;DHT22;4151;51.110;7.020;2023-05-16T14:00:01;23.70;76.90
8220;DHT22;4151;51.110;7.020;2023-05-16T14:02:29;23.50;78.60
8220;DHT22;4151;51.110;7.020;2023-05-16T14:04:54;22.70;79.40
8220;DHT22;4151;51.110;7.020;2023-05-16T14:07:20;21.30;81.90
8220;DHT22;4151;51.110;7.020;2023-05-16T14:09:46;20.10;87.20
8220;DHT22;4151;51.110;7.020;2023-05-16T14:12:11;20.70;85.90
8220;DHT22;4151;51.110;7.020;2023-05-16T14:14:37;22.20;84.20
8220;DHT22;4151;51.110;7.020;2023-05-16T14:17:02;23.60;83.20
8220;DHT22;4151;51.110;7.020;2023-05-16T14:19:31;23.90;80.20
8220;DHT22;4151;51.110;7.020;2023-05-16T14:21:57;23.00;81.40
8220;DHT22;4151;51.110;7.020;2023-05-16T14:24:22;21.70;82.80
8220;DHT22;4151;51.110;7.020;2023-05-16T14:26:48;20.70;85.40
8220;DHT22;4151;51.110;7.020;2023-05-16T14:29:13;20.40;88.60
8220;DHT22;4151;51.110;7.020;2023-05-16T14:31:39;21.30;87.30
8220;DHT22;4151;51.110;7.020;2023-05-16T14:34:05;20.80;88.10
8220;DHT22;4151;51.110;7.020;2023-05-16T14:36:30;20.70;89.50
8220;DHT22;4151;51.110;7.020;2023-05-16T14:38:56;20.40;89.80
8220;DHT22;4151;51.110;7.020;2023-05-16T14:41:22;20.80;90.80
8220;DHT22;4151;51.110;7.020;2023-05-16T14:43:47;20.30;88.40
8220;DHT22;4151;51.110;7.020;2023-05-16T14:46:13;19.80;92.60
8220;DHT22;4151;51.110;7.020;2023-05-16T14:48:39;20.10;92.70
8220;DHT22;4151;51.110;7.020;2023-05-16T14:51:05;21.20;91.10
8220;DHT22;4151;51.110;7.020;2023-05-16T14:53:31;22.60;88.50
8220;DHT22;4151;51.110;7.020;2023-05-16T14:55:58;24.90;86.00
8220;DHT22;4151;51.110;7.020;2023-05-16T14:58:23;25.10;81.80
8220;DHT22;4151;51.110;7.020;2023-05-16T15:00:49;23.50;83.10
8220;DHT22;4151;51.110;7.020;2023-05-16T15:03:16;22.00;85.60
8220;DHT22;4151;51.110;7.020;2023-05-16T15:05:44;20.80;89.70
8220;DHT22;4151;51.110;7.020;2023-05-16T15:08:10;19.90;90.60
8220;DHT22;4151;51.110;7.020;2023-05-16T15:10:35;19.60;92.80
8220;DHT22;4151;51.110;7.020;2023-05-16T15:13:01;19.10;94.40
8220;DHT22;4151;51.110;7.020;2023-05-16T15:15:27;18.60;93.30
8220;DHT22;4151;51.110;7.020;2023-05-16T15:17:53;18.10;95.50
8220;DHT22;4151;51.110;7.020;2023-05-16T15:20:19;17.80;95.80
8220;DHT22;4151;51.110;7.020;2023-05-16T15:22:46;17.60;97.40
8220;DHT22;4151;51.110;7.020;2023-05-16T15:25:11;17.10;97.90
8220;DHT22;4151;51.110;7.020;2023-05-16T15:27:37;17.00;99.40
8220;DHT22;4151;51.110;7.020;2023-05-16T15:30:03;17.20;99.90
8220;DHT22;4151;51.110;7.020;2023-05-16T15:32:28;17.70;99.80
8220;DHT22;4151;51.110;7.020;2023-05-16T15:34:54;19.50;97.50
8220;DHT22;4151;51.110;7.020;2023-05-16T15:37:20;20.40;95.20
8220;DHT22;4151;51.110;7.020;2023-05-16T15:39:46;20.40;95.10
8220;DHT22;4151;51.110;7.020;2023-05-16T15:42:11;19.70;96.60
8220;DHT22;4151;51.110;7.020;2023-05-16T15:44:37;19.10;95.70
8220;DHT22;4151;51.110;7.020;2023-05-16T15:47:02;18.20;97.30
8220;DHT22;4151;51.110;7.020;2023-05-16T15:49:28;17.70;99.60
8220;DHT22;4151;51.110;7.020;2023-05-16T15:51:54;17.20;99.90
8220;DHT22;4151;51.110;7.020;2023-05-16T15:54:20;16.60;99.90
8220;DHT22;4151;51.110;7.020;2023-05-16T15:56:45;16.30;99.90
8220;DHT22;4151;51.110;7.020;2023-05-16T15:59:11;15.90;99.90
8220;DHT22;4151;51.110;7.020;2023-05-16T16:01:37;15.80;99.90
8220;DHT22;4151;51.110;7.020;2023-05-16T16:04:02;16.10;99.90
8220;DHT22;4151;51.110;7.020;2023-05-16T16:06:28;16.20;99.90
8220;DHT22;4151;51.110;7.020;2023-05-16T16:08:53;16.30;99.90
8220;DHT22;4151;51.110;7.020;2023-05-16T16:11:19;16.40;99.90
8220;DHT22;4151;51.110;7.020;2023-05-16T16:13:48;16.50;99.90
8220;DHT22;4151;51.110;7.020;2023-05-16T16:16:14;16.80;99.90
8220;DHT22;4151;51.110;7.020;2023-05-16T16:18:40;17.00;99.90
8220;DHT22;4151;51.110;7.020;2023-05-16T16:21:07;17.10;99.90
8220;DHT22;4151;51.110;7.020;2023-05-16T16:23:34;16.80;99.90
8220;DHT22;4151;51.110;7.020;2023-05-16T16:26:00;16.40;99.90
8220;DHT22;4151;51.110;7.020;2023-05-16T16:28:25;16.20;99.90
8220;DHT22;4151;51.110;7.020;2023-05-16T16:30:51;16.00;99.90
8220;DHT22;4151;51.110;7.020;2023-05-16T16:33:17;15.70;99.90